Time;durP1;ratioP1;P1;durP2;ratioP2;P2;SDS_P1;SDS_P2;PMS_P1;PMS_P2;Temp;Humidity;BMP_temperature;BMP_pressure;BME280_temperature;BME280_humidity;BME280_pressure;Samples;Min_cycle;Max_cycle;Signal;HPM_P1;HPM_P2
2023/12/12 00:01:39;;;;;;;11.23;4.03;;;;;;;8.98;87.49;100577.13;3607519;39;20122;-64
2023/12/12 00:04:04;;;;;;;11.18;3.80;;;;;;;8.95;87.74;100585.34;3612708;39;20384;-63
2023/12/12 00:06:30;;;;;;;15.68;4.80;;;;;;;8.92;87.67;100585.53;3612804;39;20051;-64
2023/12/12 00:08:56;;;;;;;11.45;4.53;;;;;;;8.83;88.08;100575.34;3609403;39;20058;-63
2023/12/12 00:11:22;;;;;;;13.55;4.60;;;;;;;8.85;88.37;100589.53;3608115;39;20066;-63
2023/12/12 00:13:47;;;;;;;15.60;4.22;;;;;;;8.86;88.62;100579.66;3606406;39;20067;-63
2023/12/12 00:16:13;;;;;;;14.15;4.35;;;;;;;8.75;88.90;100567.75;3608584;39;20108;-63
2023/12/12 00:18:39;;;;;;;18.27;4.47;;;;;;;8.87;89.51;100587.59;3612082;39;20055;-64
2023/12/12 00:21:05;;;;;;;10.95;4.38;;;;;;;8.86;88.68;100585.88;3614873;39;20061;-63
2023/12/12 00:23:31;;;;;;;17.58;4.65;;;;;;;8.84;89.53;100585.97;3608143;39;20070;-64
2023/12/12 00:25:58;;;;;;;14.88;4.05;;;;;;;8.74;88.97;100563.34;3608306;39;20058;-64
2023/12/12 00:28:23;;;;;;;17.02;5.18;;;;;;;8.81;89.50;100574.56;3609692;39;20047;-63
2023/12/12 00:30:50;;;;;;;15.50;5.90;;;;;;;8.78;90.16;100578.28;3607660;39;20133;-63
2023/12/12 00:33:15;;;;;;;14.43;4.70;;;;;;;8.75;90.05;100575.81;3608936;39;20144;-64
2023/12/12 00:35:41;;;;;;;18.83;5.80;;;;;;;8.72;89.73;100592.06;3607774;39;20394;-63
2023/12/12 00:38:07;;;;;;;13.70;4.82;;;;;;;8.69;89.92;100585.97;3608597;39;20171;-64
2023/12/12 00:40:33;;;;;;;18.35;5.10;;;;;;;8.66;90.89;100586.16;3610100;39;20047;-64
2023/12/12 00:42:58;;;;;;;11.48;4.40;;;;;;;8.60;90.10;100576.69;3603419;39;20054;-64
2023/12/12 00:45:24;;;;;;;18.08;4.93;;;;;;;8.55;90.51;100576.94;3610367;39;20051;-63
2023/12/12 00:47:50;;;;;;;14.88;4.88;;;;;;;8.52;90.91;100571.75;3607142;39;20063;-63
2023/12/12 00:50:15;;;;;;;16.73;4.63;;;;;;;8.51;90.97;100569.16;3608442;39;20101;-64
2023/12/12 00:52:41;;;;;;;20.15;4.97;;;;;;;8.50;91.80;100573.66;3605886;39;20057;-63
2023/12/12 00:55:08;;;;;;;14.57;4.63;;;;;;;8.46;91.33;100571.25;3607406;39;20055;-64
2023/12/12 00:57:34;;;;;;;17.83;4.85;;;;;;;8.22;91.72;100533.31;3607415;39;20089;-63
2023/12/12 00:59:59;;;;;;;13.77;4.40;;;;;;;8.41;92.32;100574.19;3611144;39;20395;-64
2023/12/12 01:02:26;;;;;;;15.30;4.68;;;;;;;8.38;92.49;100566.34;3610958;39;20043;-63
2023/12/12 01:04:52;;;;;;;17.08;5.00;;;;;;;8.35;92.02;100561.13;3607114;39;20116;-64
2023/12/12 01:07:19;;;;;;;18.77;4.95;;;;;;;8.31;92.09;100562.25;3608115;39;20047;-64
2023/12/12 01:09:46;;;;;;;19.50;5.13;;;;;;;8.20;92.04;100564.66;3606305;39;20155;-64
2023/12/12 01:12:12;;;;;;;16.50;5.47;;;;;;;7.95;92.30;100533.03;3609553;39;20125;-63
2023/12/12 01:14:37;;;;;;;13.80;4.65;;;;;;;8.04;92.08;100551.25;3605936;39;20061;-63
2023/12/12 01:17:03;;;;;;;17.02;5.50;;;;;;;8.04;92.29;100565.50;3609961;39;20054;-63
2023/12/12 01:19:30;;;;;;;14.93;5.38;;;;;;;7.98;92.87;100556.97;3608256;39;20054;-63
2023/12/12 01:21:56;;;;;;;16.98;6.03;;;;;;;7.61;92.51;100511.69;3606881;39;20389;-64
2023/12/12 01:24:21;;;;;;;14.68;5.85;;;;;;;7.82;91.93;100559.63;3606488;39;20047;-64
2023/12/12 01:26:47;;;;;;;15.63;5.63;;;;;;;7.71;92.94;100551.28;3604478;39;20062;-64
2023/12/12 01:29:16;;;;;;;19.83;5.93;;;;;;;7.64;92.86;100548.97;3608267;39;20066;-63
2023/12/12 01:31:43;;;;;;;17.55;5.35;;;;;;;7.57;92.54;100549.38;3607658;39;20371;-63
2023/12/12 01:34:09;;;;;;;13.35;5.40;;;;;;;7.49;92.67;100555.16;3607513;39;20111;-63
2023/12/12 01:36:35;;;;;;;13.32;4.82;;;;;;;7.42;93.24;100543.03;3605968;39;20053;-63
2023/12/12 01:39:01;;;;;;;13.52;4.65;;;;;;;7.35;93.02;100541.63;3608826;39;20059;-63
2023/12/12 01:41:26;;;;;;;17.30;5.00;;;;;;;7.28;92.70;100543.78;3606423;39;20419;-63
2023/12/12 01:43:52;;;;;;;16.95;5.43;;;;;;;7.21;92.78;100537.88;3606872;39;20063;-64
2023/12/12 01:46:20;;;;;;;20.15;5.47;;;;;;;6.86;93.70;100488.94;3604355;39;20256;-63
2023/12/12 01:48:48;;;;;;;13.40;4.50;;;;;;;7.07;93.42;100545.78;3607660;39;20075;-63
2023/12/12 01:51:14;;;;;;;14.15;5.63;;;;;;;7.01;93.10;100540.75;3608392;39;20055;-64
2023/12/12 01:53:48;;;;;;;15.60;4.93;;;;;;;6.97;94.41;100544.50;3609921;39;20059;-63
2023/12/12 01:56:15;;;;;;;16.92;4.95;;;;;;;6.70;94.62;100499.56;3607672;39;20368;-63
2023/12/12 01:58:46;;;;;;;20.48;4.55;;;;;;;6.95;95.04;100541.06;3606454;39;20425;-64
2023/12/12 02:01:14;;;;;;;14.90;4.22;;;;;;;6.65;96.14;100498.91;3609791;39;20476;-63
2023/12/12 02:03:41;;;;;;;21.67;5.35;;;;;;;6.94;96.36;100544.66;3608049;39;20135;-63
2023/12/12 02:06:12;;;;;;;19.10;4.80;;;;;;;6.89;96.38;100541.38;3609685;39;20051;-63
2023/12/12 02:08:38;;;;;;;13.93;4.10;;;;;;;6.75;95.90;100518.00;3608474;39;20055;-63
2023/12/12 02:11:04;;;;;;;16.25;5.03;;;;;;;6.88;96.41;100545.84;3608368;39;20303;-63
2023/12/12 02:13:29;;;;;;;17.80;5.43;;;;;;;6.87;96.21;100541.44;3605867;39;20062;-63
2023/12/12 02:15:55;;;;;;;14.40;5.55;;;;;;;6.86;96.45;100546.88;3603998;39;20054;-63
2023/12/12 02:18:20;;;;;;;14.50;5.10;;;;;;;6.81;95.81;100544.41;3603384;39;20063;-64
2023/12/12 02:20:46;;;;;;;12.13;4.78;;;;;;;6.83;96.41;100539.00;3606868;39;20059;-64
2023/12/12 02:23:12;;;;;;;18.27;5.47;;;;;;;6.83;97.01;100537.19;3606945;39;20304;-64
2023/12/12 02:25:38;;;;;;;24.73;5.82;;;;;;;6.82;96.97;100534.59;3608604;39;20066;-64
2023/12/12 02:28:06;;;;;;;17.98;4.88;;;;;;;6.83;97.41;100525.66;3609117;39;20063;-63
2023/12/12 02:30:35;;;;;;;23.48;4.95;;;;;;;6.83;97.81;100520.31;3608372;39;20039;-62
2023/12/12 02:33:02;;;;;;;13.27;4.43;;;;;;;6.80;96.82;100525.81;3604390;39;20055;-63
2023/12/12 02:35:29;;;;;;;20.48;4.60;;;;;;;6.77;96.83;100515.28;3605842;39;20102;-63
2023/12/12 02:37:54;;;;;;;20.00;4.38;;;;;;;6.73;96.10;100520.78;3605206;39;20120;-63
2023/12/12 02:40:20;;;;;;;19.67;5.25;;;;;;;6.70;96.46;100515.59;3611213;39;20066;-63
2023/12/12 02:42:46;;;;;;;21.83;5.65;;;;;;;6.70;97.03;100518.25;3610238;39;20054;-63
2023/12/12 02:45:12;;;;;;;21.17;5.07;;;;;;;6.69;97.65;100516.53;3609258;39;20051;-63
2023/12/12 02:47:38;;;;;;;16.33;4.30;;;;;;;6.70;97.21;100520.94;3604972;39;20061;-63
2023/12/12 02:50:04;;;;;;;18.77;4.70;;;;;;;6.68;97.59;100522.81;3609270;39;20055;-63
2023/12/12 02:52:30;;;;;;;21.38;5.68;;;;;;;6.69;97.86;100524.56;3605859;39;20043;-63
2023/12/12 02:54:56;;;;;;;15.75;4.53;;;;;;;6.68;97.64;100516.59;3607311;39;20058;-64
2023/12/12 02:57:23;;;;;;;20.80;4.90;;;;;;;6.63;96.94;100519.53;3605844;39;20064;-63
2023/12/12 02:59:49;;;;;;;21.52;4.38;;;;;;;6.59;96.39;100522.41;3610123;39;20103;-64
2023/12/12 03:02:15;;;;;;;17.60;5.40;;;;;;;6.43;97.23;100496.47;3613914;39;20331;-63
2023/12/12 03:04:45;;;;;;;21.77;4.85;;;;;;;6.55;97.21;100520.84;3607335;39;20379;-63
2023/12/12 03:07:11;;;;;;;18.70;4.95;;;;;;;6.54;97.50;100516.44;3607325;39;20055;-63
2023/12/12 03:09:37;;;;;;;17.52;4.00;;;;;;;6.54;97.50;100511.09;3611465;39;20081;-63
2023/12/12 03:12:04;;;;;;;19.75;4.60;;;;;;;6.55;98.47;100515.50;3611599;39;20055;-63
2023/12/12 03:14:29;;;;;;;21.65;5.05;;;;;;;6.55;98.62;100505.69;3606234;39;20046;-63
2023/12/12 03:16:57;;;;;;;16.80;5.00;;;;;;;6.56;98.31;100504.72;3605018;39;20168;-63
2023/12/12 03:19:24;;;;;;;27.55;5.50;;;;;;;6.53;98.14;100499.53;3606016;39;20116;-63
2023/12/12 03:21:50;;;;;;;19.05;4.10;;;;;;;6.47;97.82;100491.84;3604859;39;20523;-63
2023/12/12 03:24:17;;;;;;;20.27;5.22;;;;;;;6.50;98.35;100494.34;3606593;39;20112;-62
2023/12/12 03:26:44;;;;;;;14.57;4.75;;;;;;;6.48;98.00;100494.44;3605131;39;20051;-63
2023/12/12 03:29:10;;;;;;;16.08;4.63;;;;;;;6.44;97.41;100490.22;3607108;39;20055;-64
2023/12/12 03:31:36;;;;;;;15.60;4.53;;;;;;;6.41;97.08;100485.03;3607785;39;20074;-62
2023/12/12 03:34:01;;;;;;;16.55;4.20;;;;;;;6.40;97.69;100490.41;3607495;39;20043;-63
2023/12/12 03:36:27;;;;;;;19.67;4.90;;;;;;;6.39;97.43;100488.69;3607025;39;20055;-63
2023/12/12 03:38:53;;;;;;;15.32;4.85;;;;;;;6.38;97.89;100484.31;3604651;39;20058;-63
2023/12/12 03:41:18;;;;;;;16.65;4.20;;;;;;;6.38;97.94;100482.50;3607899;39;20272;-64
2023/12/12 03:43:44;;;;;;;19.95;4.25;;;;;;;6.38;97.37;100486.97;3605243;39;20124;-64
2023/12/12 03:46:13;;;;;;;20.58;4.63;;;;;;;6.18;97.47;100448.78;3608841;39;20046;-64
2023/12/12 03:48:39;;;;;;;21.25;5.20;;;;;;;6.41;98.12;100473.47;3606696;39;20043;-63
2023/12/12 03:51:09;;;;;;;16.08;5.25;;;;;;;6.44;98.03;100470.66;3606938;39;20083;-64
2023/12/12 03:53:35;;;;;;;18.13;4.50;;;;;;;6.46;98.45;100463.41;3609940;39;20057;-64
2023/12/12 03:56:01;;;;;;;24.15;6.32;;;;;;;6.52;98.90;100449.75;3608117;39;20074;-65
2023/12/12 03:58:27;;;;;;;14.23;4.32;;;;;;;6.59;99.69;100447.63;3609397;39;20058;-64
2023/12/12 04:00:52;;;;;;;24.13;6.07;;;;;;;6.66;100.00;100449.03;3608684;39;20053;-64
2023/12/12 04:03:18;;;;;;;29.25;6.80;;;;;;;6.74;100.00;100446.84;3608825;39;20116;-64
2023/12/12 04:05:44;;;;;;;24.85;6.63;;;;;;;6.81;100.00;100450.91;3606927;39;20086;-63
2023/12/12 04:08:10;;;;;;;28.88;6.78;;;;;;;6.89;100.00;100445.19;3607749;39;20179;-64
2023/12/12 04:10:35;;;;;;;22.58;7.15;;;;;;;6.97;100.00;100440.28;3606477;39;20051;-64
2023/12/12 04:13:01;;;;;;;23.67;6.65;;;;;;;7.03;100.00;100434.63;3607215;39;20150;-63
2023/12/12 04:15:27;;;;;;;27.48;6.82;;;;;;;7.11;100.00;100434.22;3609176;39;20051;-64
2023/12/12 04:17:52;;;;;;;26.35;7.35;;;;;;;7.15;100.00;100433.97;3609076;39;20058;-64
2023/12/12 04:20:18;;;;;;;28.98;7.13;;;;;;;7.22;100.00;100429.13;3609317;39;20051;-64
2023/12/12 04:22:44;;;;;;;27.30;6.85;;;;;;;7.27;100.00;100429.75;3607848;39;20057;-64
2023/12/12 04:25:11;;;;;;;34.25;7.25;;;;;;;7.33;100.00;100428.56;3607729;39;20051;-64
2023/12/12 04:27:37;;;;;;;27.83;6.90;;;;;;;7.35;100.00;100422.16;3599900;39;20055;-64
2023/12/12 04:30:07;;;;;;;24.92;6.95;;;;;;;7.40;100.00;100425.47;3606926;39;20652;-64
2023/12/12 04:32:33;;;;;;;32.97;8.13;;;;;;;7.37;100.00;100414.06;3609403;39;20051;-64
2023/12/12 04:35:00;;;;;;;31.00;7.45;;;;;;;7.49;100.00;100424.09;3607817;39;20129;-64
2023/12/12 04:37:26;;;;;;;28.13;7.63;;;;;;;7.38;100.00;100402.44;3608825;39;20054;-63
2023/12/12 04:39:52;;;;;;;31.40;7.88;;;;;;;7.59;100.00;100430.66;3608928;39;20061;-64
2023/12/12 04:42:18;;;;;;;25.52;7.10;;;;;;;7.61;99.99;100430.56;3607866;39;20047;-64
2023/12/12 04:44:44;;;;;;;28.83;7.22;;;;;;;7.64;99.96;100433.94;3605682;39;20043;-63
2023/12/12 04:47:09;;;;;;;23.83;6.85;;;;;;;7.65;99.91;100424.09;3608721;39;20099;-64
2023/12/12 04:49:36;;;;;;;17.65;6.40;;;;;;;7.65;99.76;100430.31;3610115;39;20057;-64
2023/12/12 04:52:02;;;;;;;32.00;6.80;;;;;;;7.70;100.00;100421.16;3609320;39;20065;-64
2023/12/12 04:54:27;;;;;;;32.65;7.10;;;;;;;7.72;99.91;100424.63;3609806;39;20055;-64
2023/12/12 04:56:53;;;;;;;25.17;6.18;;;;;;;7.75;100.00;100413.75;3608305;39;20051;-64
2023/12/12 04:59:19;;;;;;;26.65;6.97;;;;;;;7.76;100.00;100410.97;3610157;39;20063;-64
2023/12/12 05:01:45;;;;;;;30.95;7.68;;;;;;;7.79;100.00;100409.94;3607786;39;20043;-63
2023/12/12 05:04:10;;;;;;;27.13;7.13;;;;;;;7.81;99.82;100410.72;3609185;39;20062;-64
2023/12/12 05:06:36;;;;;;;30.85;6.80;;;;;;;7.83;100.00;100406.13;3610677;39;20107;-64
2023/12/12 05:09:03;;;;;;;25.77;6.38;;;;;;;7.87;100.00;100407.69;3605847;39;20073;-63
2023/12/12 05:11:29;;;;;;;29.27;7.15;;;;;;;7.89;100.00;100395.06;3607385;39;20370;-63
2023/12/12 05:13:56;;;;;;;31.55;7.70;;;;;;;7.84;100.00;100381.97;3607355;39;20069;-63
2023/12/12 05:16:23;;;;;;;25.80;6.43;;;;;;;7.95;99.70;100397.41;3607895;39;20047;-63
2023/12/12 05:18:49;;;;;;;28.58;6.80;;;;;;;7.97;100.00;100395.50;3607394;39;20058;-63
2023/12/12 05:21:14;;;;;;;23.55;6.43;;;;;;;8.00;100.00;100392.66;3606362;39;20050;-63
2023/12/12 05:23:41;;;;;;;24.48;6.15;;;;;;;8.02;100.00;100385.38;3606208;39;20087;-63
2023/12/12 05:26:07;;;;;;;35.78;7.22;;;;;;;8.05;100.00;100387.88;3607154;39;20051;-62
2023/12/12 05:28:33;;;;;;;27.70;7.22;;;;;;;8.07;100.00;100374.41;3607437;39;20055;-63
2023/12/12 05:30:59;;;;;;;29.70;7.35;;;;;;;8.08;100.00;100379.66;3605632;39;20128;-63
2023/12/12 05:33:24;;;;;;;24.13;6.78;;;;;;;8.11;100.00;100381.31;3608324;39;20070;-63
2023/12/12 05:35:50;;;;;;;31.35;7.35;;;;;;;8.13;100.00;100382.94;3605165;39;20066;-63
2023/12/12 05:38:16;;;;;;;28.23;6.72;;;;;;;8.16;100.00;100381.06;3606898;39;20071;-63
2023/12/12 05:40:42;;;;;;;27.50;7.05;;;;;;;8.19;100.00;100375.53;3609156;39;20081;-62
2023/12/12 05:43:09;;;;;;;26.85;7.50;;;;;;;8.20;99.93;100372.72;3606912;39;20071;-63
2023/12/12 05:45:35;;;;;;;32.67;7.22;;;;;;;8.22;99.90;100378.00;3606782;39;20078;-63
2023/12/12 05:48:03;;;;;;;27.88;6.95;;;;;;;8.22;100.00;100378.00;3606391;39;20122;-63
2023/12/12 05:50:29;;;;;;;27.00;7.85;;;;;;;8.20;99.82;100369.19;3609107;39;20151;-63
2023/12/12 05:52:55;;;;;;;21.95;7.18;;;;;;;8.21;100.00;100370.91;3609026;39;20066;-64
2023/12/12 05:55:21;;;;;;;28.27;6.55;;;;;;;8.26;99.88;100377.72;3607307;39;20059;-64
2023/12/12 05:57:48;;;;;;;25.65;6.75;;;;;;;7.54;99.86;100255.34;3606530;39;20055;-61
2023/12/12 06:00:14;;;;;;;33.17;7.38;;;;;;;8.13;100.00;100356.19;3606494;39;20415;-62
2023/12/12 06:02:41;;;;;;;32.00;7.68;;;;;;;8.28;100.00;100378.50;3606591;39;20162;-61
2023/12/12 06:05:08;;;;;;;28.88;7.18;;;;;;;8.30;100.00;100379.25;3604957;39;20496;-61
2023/12/12 06:07:34;;;;;;;26.80;6.22;;;;;;;8.31;99.80;100374.78;3604248;39;20097;-62
2023/12/12 06:10:00;;;;;;;29.02;6.85;;;;;;;8.32;99.93;100369.34;3607067;39;20062;-62
2023/12/12 06:12:26;;;;;;;33.83;8.93;;;;;;;8.32;99.98;100365.78;3606141;39;20051;-64
2023/12/12 06:14:51;;;;;;;29.98;7.72;;;;;;;8.29;100.00;100363.31;3606642;39;20065;-64
2023/12/12 06:17:17;;;;;;;25.08;6.55;;;;;;;8.36;99.69;100370.88;3606625;39;20062;-64
2023/12/12 06:19:42;;;;;;;25.85;6.30;;;;;;;8.39;99.74;100367.19;3605136;39;20062;-63
2023/12/12 06:22:08;;;;;;;27.38;6.63;;;;;;;8.40;100.00;100363.53;3604600;39;20449;-64
2023/12/12 06:24:34;;;;;;;26.50;6.22;;;;;;;8.42;99.83;100358.09;3608370;39;20070;-63
2023/12/12 06:27:00;;;;;;;27.55;6.07;;;;;;;8.42;100.00;100348.25;3605393;39;20051;-64
2023/12/12 06:29:25;;;;;;;26.77;6.55;;;;;;;8.42;100.00;100356.28;3606322;39;20063;-62
2023/12/12 06:31:51;;;;;;;26.33;6.45;;;;;;;8.45;100.00;100350.75;3604872;39;20062;-63
2023/12/12 06:34:17;;;;;;;31.40;6.50;;;;;;;8.44;99.50;100338.31;3609206;39;20047;-63
2023/12/12 06:36:42;;;;;;;28.75;6.15;;;;;;;8.45;99.64;100334.66;3608775;39;20061;-64
2023/12/12 06:39:10;;;;;;;24.92;6.50;;;;;;;8.48;100.00;100333.63;3609899;39;20067;-63
2023/12/12 06:41:36;;;;;;;22.55;6.20;;;;;;;8.48;99.72;100333.63;3609981;39;20062;-63
2023/12/12 06:44:02;;;;;;;30.38;6.55;;;;;;;8.41;99.86;100322.44;3606558;39;20074;-63
2023/12/12 06:46:28;;;;;;;22.75;6.07;;;;;;;8.47;100.00;100324.75;3608299;39;20067;-64
2023/12/12 06:48:54;;;;;;;22.25;6.22;;;;;;;8.44;100.00;100316.88;3607661;39;20683;-64
2023/12/12 06:51:20;;;;;;;23.00;5.97;;;;;;;8.43;100.00;100319.63;3605793;39;20058;-64
2023/12/12 06:53:45;;;;;;;26.83;5.70;;;;;;;8.41;99.48;100317.06;3606715;39;20054;-63
2023/12/12 06:56:11;;;;;;;26.75;6.15;;;;;;;8.40;99.82;100307.28;3606948;39;20055;-63
2023/12/12 06:58:36;;;;;;;29.00;6.32;;;;;;;8.39;99.87;100307.41;3610794;39;20055;-63
2023/12/12 07:01:03;;;;;;;24.80;5.60;;;;;;;8.38;99.95;100301.19;3604427;39;20050;-63
2023/12/12 07:03:28;;;;;;;30.42;6.18;;;;;;;8.22;100.00;100274.47;3607858;39;20039;-63
2023/12/12 07:05:54;;;;;;;30.75;7.00;;;;;;;8.38;99.91;100301.19;3609232;39;20050;-63
2023/12/12 07:08:21;;;;;;;23.77;5.65;;;;;;;8.39;100.00;100299.38;3606089;39;20077;-63
2023/12/12 07:10:47;;;;;;;24.42;6.38;;;;;;;8.19;100.00;100257.72;3606728;39;20059;-63
2023/12/12 07:13:13;;;;;;;28.17;6.57;;;;;;;8.42;100.00;100297.34;3606929;39;20358;-64
2023/12/12 07:15:40;;;;;;;25.17;6.75;;;;;;;8.43;100.00;100296.41;3609774;39;20077;-63
2023/12/12 07:18:11;;;;;;;30.33;6.20;;;;;;;8.46;100.00;100298.03;3606029;39;20059;-64
2023/12/12 07:20:41;;;;;;;29.65;6.22;;;;;;;8.27;100.00;100272.34;3609508;39;20108;-64
2023/12/12 07:23:07;;;;;;;34.95;13.57;;;;;;;8.51;100.00;100299.47;3609367;39;20492;-64
2023/12/12 07:25:34;;;;;;;24.88;7.13;;;;;;;8.55;100.00;100295.63;3609990;39;20047;-63
2023/12/12 07:28:00;;;;;;;21.08;6.13;;;;;;;8.60;100.00;100295.38;3610374;39;20055;-63
2023/12/12 07:30:29;;;;;;;23.33;6.43;;;;;;;8.65;100.00;100297.75;3611080;39;20352;-63
2023/12/12 07:32:55;;;;;;;24.52;6.20;;;;;;;8.63;100.00;100287.16;3609939;39;20050;-63
2023/12/12 07:35:21;;;;;;;25.00;6.63;;;;;;;8.71;100.00;100292.00;3609528;39;20066;-63
2023/12/12 07:37:47;;;;;;;24.92;5.43;;;;;;;8.48;100.00;100248.78;3608947;39;20066;-62
2023/12/12 07:40:13;;;;;;;28.15;6.13;;;;;;;8.79;100.00;100287.03;3610403;39;20399;-63
2023/12/12 07:42:39;;;;;;;26.77;6.70;;;;;;;8.84;100.00;100287.59;3609448;39;20091;-63
2023/12/12 07:45:07;;;;;;;23.30;5.63;;;;;;;8.89;100.00;100281.97;3608165;39;20069;-63
2023/12/12 07:47:33;;;;;;;28.50;6.18;;;;;;;8.92;100.00;100274.59;3610509;39;20063;-63
2023/12/12 07:49:59;;;;;;;22.95;5.03;;;;;;;8.97;100.00;100267.09;3609183;39;20055;-63
2023/12/12 07:52:26;;;;;;;27.15;5.80;;;;;;;9.00;100.00;100266.03;3609389;39;20043;-62
2023/12/12 07:54:51;;;;;;;29.75;6.80;;;;;;;8.78;100.00;100220.97;3607836;39;20139;-62
2023/12/12 07:57:17;;;;;;;23.30;5.80;;;;;;;9.03;100.00;100266.69;3607712;39;20331;-63
2023/12/12 07:59:43;;;;;;;19.58;5.97;;;;;;;9.04;100.00;100260.41;3608589;39;20075;-63
2023/12/12 08:02:10;;;;;;;21.60;6.22;;;;;;;9.03;100.00;100261.34;3609162;39;20149;-62
2023/12/12 08:04:36;;;;;;;26.77;6.55;;;;;;;9.06;99.63;100255.78;3612042;39;20053;-63
2023/12/12 08:07:03;;;;;;;28.20;6.13;;;;;;;9.07;99.76;100256.66;3610090;39;20130;-63
2023/12/12 08:09:29;;;;;;;22.98;5.35;;;;;;;9.06;100.00;100250.41;3608739;39;20055;-62
2023/12/12 08:11:56;;;;;;;21.85;5.10;;;;;;;9.02;99.93;100237.31;3607116;39;20124;-63
2023/12/12 08:14:22;;;;;;;22.40;5.40;;;;;;;9.13;100.00;100253.56;3610497;39;20055;-62
2023/12/12 08:16:48;;;;;;;24.75;5.88;;;;;;;9.12;98.91;100242.94;3613742;39;20096;-63
2023/12/12 08:19:17;;;;;;;25.10;5.72;;;;;;;9.16;99.13;100239.09;3609090;39;20063;-65
2023/12/12 08:21:42;;;;;;;26.75;5.70;;;;;;;9.13;98.82;100228.56;3614643;39;20051;-63
2023/12/12 08:24:08;;;;;;;28.73;5.72;;;;;;;9.20;99.32;100235.28;3609411;39;20078;-63
2023/12/12 08:26:42;;;;;;;26.48;6.18;;;;;;;9.14;99.16;100219.59;3609354;39;20055;-63
2023/12/12 08:29:09;;;;;;;26.40;5.55;;;;;;;9.26;99.22;100230.38;3604165;39;20877;-63
2023/12/12 08:31:35;;;;;;;21.30;5.72;;;;;;;9.30;99.11;100220.28;3609328;39;20043;-63
2023/12/12 08:34:01;;;;;;;23.20;6.53;;;;;;;9.34;98.70;100221.78;3607448;39;20099;-63
2023/12/12 08:36:27;;;;;;;28.92;7.22;;;;;;;9.36;97.83;100219.88;3607333;39;20051;-63
2023/12/12 08:38:54;;;;;;;27.65;6.03;;;;;;;9.39;97.53;100224.19;3608515;39;20059;-62
2023/12/12 08:41:21;;;;;;;25.48;5.25;;;;;;;9.41;97.76;100228.47;3609508;39;20056;-63
2023/12/12 08:43:46;;;;;;;22.45;5.30;;;;;;;9.43;97.63;100223.88;3610267;39;20055;-65
2023/12/12 08:46:12;;;;;;;21.08;4.95;;;;;;;9.47;97.44;100221.84;3610180;39;20380;-63
2023/12/12 08:48:38;;;;;;;27.88;7.78;;;;;;;9.49;96.94;100212.72;3607942;39;20054;-63
2023/12/12 08:51:04;;;;;;;24.98;7.70;;;;;;;9.56;96.36;100215.00;3606434;39;20159;-63
2023/12/12 08:53:30;;;;;;;29.80;10.77;;;;;;;9.58;95.63;100216.63;3607199;39;20091;-63
2023/12/12 08:55:56;;;;;;;23.83;6.45;;;;;;;9.62;95.34;100211.91;3608330;39;20413;-62
2023/12/12 08:58:23;;;;;;;21.15;5.78;;;;;;;9.66;95.89;100219.63;3610329;39;20066;-63
2023/12/12 09:00:52;;;;;;;30.27;9.00;;;;;;;9.71;94.97;100213.97;3610649;39;20054;-62
2023/12/12 09:03:17;;;;;;;18.60;4.85;;;;;;;9.76;94.61;100211.81;3610892;39;20116;-63
2023/12/12 09:05:44;;;;;;;18.15;4.55;;;;;;;9.83;94.98;100197.03;3611736;39;20059;-63
2023/12/12 09:08:10;;;;;;;19.38;4.53;;;;;;;9.86;93.90;100196.78;3607685;39;20321;-62
2023/12/12 09:10:36;;;;;;;17.52;4.88;;;;;;;9.90;94.03;100192.94;3608870;39;20368;-62
2023/12/12 09:13:03;;;;;;;18.35;4.90;;;;;;;9.97;92.75;100183.50;3607549;39;20051;-62
2023/12/12 09:15:30;;;;;;;19.00;5.18;;;;;;;9.98;92.76;100181.66;3608906;39;20132;-63
2023/12/12 09:17:55;;;;;;;23.35;9.77;;;;;;;10.00;92.94;100169.84;3609364;39;20063;-62
2023/12/12 09:20:21;;;;;;;23.30;5.20;;;;;;;10.03;92.48;100163.41;3610213;39;20133;-63
2023/12/12 09:22:47;;;;;;;19.17;4.47;;;;;;;10.08;92.90;100168.44;3609469;39;20054;-64
2023/12/12 09:25:12;;;;;;;12.50;3.97;;;;;;;10.14;92.47;100171.56;3609401;39;20074;-62
2023/12/12 09:27:38;;;;;;;26.38;8.70;;;;;;;10.20;92.04;100176.50;3608564;39;20291;-63
2023/12/12 09:30:04;;;;;;;15.23;5.53;;;;;;;10.28;91.81;100169.78;3610009;39;20070;-62
2023/12/12 09:32:31;;;;;;;17.98;4.47;;;;;;;10.35;91.26;100166.53;3608022;39;20102;-62
2023/12/12 09:34:57;;;;;;;13.77;3.83;;;;;;;10.49;91.44;100159.31;3605512;39;20131;-62
2023/12/12 09:37:23;;;;;;;15.43;3.88;;;;;;;10.54;90.70;100162.53;3608542;39;20054;-60
2023/12/12 09:39:49;;;;;;;16.23;3.72;;;;;;;10.62;90.47;100162.81;3615249;39;20047;-64
2023/12/12 09:42:22;;;;;;;18.30;4.32;;;;;;;10.71;90.28;100142.47;3610064;39;20090;-64
2023/12/12 09:45:00;;;;;;;15.37;3.87;;;;;;;10.83;89.33;100137.06;3610627;39;20047;-65
2023/12/12 09:47:30;;;;;;;13.18;3.88;;;;;;;11.11;89.56;100156.53;3610634;39;20047;-64
2023/12/12 09:50:00;;;;;;;13.23;3.75;;;;;;;11.03;87.74;100118.56;3606624;39;20099;-63
2023/12/12 09:52:32;;;;;;;15.88;4.43;;;;;;;11.27;87.50;100142.78;3607272;39;20058;-64
2023/12/12 09:54:59;;;;;;;18.42;4.63;;;;;;;11.28;86.17;100137.25;3609100;39;20046;-64
2023/12/12 09:57:28;;;;;;;15.25;4.18;;;;;;;11.30;86.68;100138.00;3609883;39;20325;-65
2023/12/12 09:59:54;;;;;;;20.48;3.50;;;;;;;11.31;85.83;100123.56;3606658;39;20058;-65
2023/12/12 10:02:26;;;;;;;15.57;4.00;;;;;;;11.36;85.90;100120.56;3610175;39;20078;-64
2023/12/12 10:04:53;;;;;;;16.92;4.55;;;;;;;11.41;85.85;100115.66;3610684;39;20375;-65
2023/12/12 10:07:20;;;;;;;15.38;3.92;;;;;;;11.21;85.94;100059.84;3610019;39;20051;-65
2023/12/12 10:09:47;;;;;;;14.50;3.95;;;;;;;11.66;86.65;100106.53;3609217;39;20043;-65
2023/12/12 10:12:13;;;;;;;11.48;3.15;;;;;;;11.87;84.72;100098.66;3607706;39;20073;-65
2023/12/12 10:14:43;;;;;;;10.68;2.85;;;;;;;12.06;83.90;100087.28;3609054;39;20327;-65
2023/12/12 10:17:11;;;;;;;9.02;2.60;;;;;;;12.11;81.95;100074.28;3608687;39;20051;-64
2023/12/12 10:19:38;;;;;;;13.52;3.45;;;;;;;12.33;81.51;100073.41;3608631;39;20057;-65
2023/12/12 10:22:10;;;;;;;13.60;3.35;;;;;;;12.52;80.48;100083.56;3604812;39;20077;-64
2023/12/12 10:24:37;;;;;;;13.32;3.47;;;;;;;12.65;80.14;100080.69;3610936;39;20395;-65
2023/12/12 10:27:06;;;;;;;14.50;5.05;;;;;;;12.78;79.27;100090.38;3607403;39;20422;-64
2023/12/12 10:29:32;;;;;;;11.98;4.53;;;;;;;12.92;78.43;100074.88;3609732;39;20069;-64
2023/12/12 10:31:59;;;;;;;9.63;3.13;;;;;;;13.08;77.80;100072.59;3601965;39;20053;-64
2023/12/12 10:34:28;;;;;;;9.80;2.90;;;;;;;13.24;78.04;100077.53;3610785;39;20059;-64
2023/12/12 10:36:58;;;;;;;10.48;3.17;;;;;;;13.20;76.41;100052.66;3610740;39;20376;-65
2023/12/12 10:39:30;;;;;;;8.20;2.83;;;;;;;13.46;75.64;100080.16;3611452;39;20188;-65
2023/12/12 10:41:56;;;;;;;6.43;2.58;;;;;;;13.51;75.53;100071.69;3608362;39;20383;-64
2023/12/12 10:44:32;;;;;;;11.43;4.40;;;;;;;13.50;75.38;100069.09;3607093;39;20063;-65
2023/12/12 10:47:03;;;;;;;9.95;3.10;;;;;;;13.45;75.78;100061.41;3604261;39;20089;-64
2023/12/12 10:49:31;;;;;;;7.05;2.63;;;;;;;13.56;76.33;100074.81;3609386;39;20406;-64
2023/12/12 10:52:01;;;;;;;6.90;2.30;;;;;;;13.54;75.44;100052.50;3609349;39;20112;-64
2023/12/12 10:54:32;;;;;;;8.43;2.28;;;;;;;13.43;75.77;100055.25;3605939;39;20157;-65
2023/12/12 10:57:00;;;;;;;5.90;2.05;;;;;;;13.32;75.94;100049.91;3605211;39;20063;-64
2023/12/12 10:59:28;;;;;;;6.35;2.42;;;;;;;13.18;75.80;100051.06;3612689;39;20047;-65
2023/12/12 11:01:56;;;;;;;8.90;2.33;;;;;;;13.02;76.46;100046.13;3611291;39;20050;-64
2023/12/12 11:04:26;;;;;;;3.88;1.88;;;;;;;12.90;77.41;100034.53;3608592;39;20055;-64
2023/12/12 11:06:52;;;;;;;9.73;2.72;;;;;;;12.80;77.61;100027.34;3612237;39;20042;-64
2023/12/12 11:09:18;;;;;;;5.45;2.20;;;;;;;12.70;78.36;100016.47;3611595;39;20311;-64
2023/12/12 11:11:50;;;;;;;7.57;2.40;;;;;;;12.59;78.91;100012.00;3608535;39;20051;-64
2023/12/12 11:14:21;;;;;;;8.35;2.47;;;;;;;12.53;80.16;100004.41;3608737;39;20066;-64
2023/12/12 11:16:50;;;;;;;7.47;2.63;;;;;;;12.52;80.24;99999.97;3612816;39;20045;-64
2023/12/12 11:19:18;;;;;;;9.77;2.30;;;;;;;12.50;80.35;99993.88;3610315;39;20055;-65